createdAt,value
2018-12-29T00:00:57.464Z,46.87
2018-12-29T00:03:27.640Z,44.57
2018-12-29T00:05:57.856Z,46.73
2018-12-29T00:08:28.057Z,45.23
2018-12-29T00:10:58.408Z,44.20
2018-12-29T00:13:29.116Z,48.17
2018-12-29T00:15:59.721Z,39.97
2018-12-29T00:18:29.970Z,40.50
2018-12-29T00:21:00.970Z,40.63
2018-12-29T00:23:31.262Z,49.93
2018-12-29T00:26:01.824Z,41.77
2018-12-29T00:28:32.373Z,47.67
2018-12-29T00:31:02.661Z,35.40
2018-12-29T00:33:32.947Z,42.40
2018-12-29T00:36:02.976Z,42.77
2018-12-29T00:38:32.895Z,50.63
2018-12-29T00:41:02.919Z,44.50
2018-12-29T00:43:33.297Z,44.57
2018-12-29T00:46:03.349Z,32.57
2018-12-29T00:48:33.440Z,38.50
2018-12-29T00:51:03.765Z,39.40
2018-12-29T00:53:33.708Z,42.00
2018-12-29T00:56:03.769Z,40.03
2018-12-29T00:58:33.726Z,38.43
2018-12-29T01:01:03.689Z,42.00
2018-12-29T01:03:33.652Z,36.13
2018-12-29T01:06:04.441Z,41.60
2018-12-29T01:08:35.165Z,37.03
2018-12-29T01:11:05.108Z,33.03
2018-12-29T01:13:34.996Z,35.57
2018-12-29T01:16:04.961Z,36.33
2018-12-29T01:18:34.913Z,33.27
2018-12-29T01:21:06.109Z,35.87
2018-12-29T01:23:36.033Z,35.23
2018-12-29T01:26:05.972Z,37.33
2018-12-29T01:28:35.901Z,40.20
2018-12-29T01:31:05.837Z,32.87
2018-12-29T01:33:35.827Z,37.33
2018-12-29T01:36:05.805Z,32.30
2018-12-29T01:38:35.724Z,30.97
2018-12-29T01:41:05.661Z,33.57
2018-12-29T01:43:35.585Z,36.90
2018-12-29T01:46:05.875Z,29.50
2018-12-29T01:48:36.085Z,29.17
2018-12-29T01:51:06.321Z,28.27
2018-12-29T01:53:36.266Z,32.43
2018-12-29T01:56:06.201Z,31.23
2018-12-29T01:58:36.177Z,30.70
2018-12-29T02:01:07.046Z,30.67
2018-12-29T02:03:37.038Z,26.27
2018-12-29T02:06:07.317Z,25.87
2018-12-29T02:08:38.321Z,31.10
2018-12-29T02:11:08.334Z,29.53
2018-12-29T02:13:38.544Z,32.47
2018-12-29T02:16:08.838Z,28.63
2018-12-29T02:18:39.023Z,28.37
2018-12-29T02:21:09.077Z,31.63
2018-12-29T02:23:39.473Z,26.70
2018-12-29T02:26:10.005Z,32.50
2018-12-29T02:28:40.009Z,28.23
2018-12-29T02:31:09.933Z,24.63
2018-12-29T02:33:39.981Z,35.63
2018-12-29T02:36:09.968Z,25.37
2018-12-29T02:38:40.214Z,30.60
2018-12-29T02:41:10.137Z,31.50
2018-12-29T02:43:40.621Z,28.67
2018-12-29T02:46:10.837Z,33.40
2018-12-29T02:48:41.028Z,33.70
2018-12-29T02:51:11.229Z,39.20
2018-12-29T02:53:41.538Z,32.90
2018-12-29T02:56:11.778Z,29.40
2018-12-29T02:58:41.978Z,28.13
2018-12-29T03:01:11.932Z,27.07
2018-12-29T03:03:41.997Z,33.67
2018-12-29T03:06:12.243Z,33.57
2018-12-29T03:08:42.504Z,29.50
2018-12-29T03:11:12.905Z,34.73
2018-12-29T03:13:43.973Z,33.17
2018-12-29T03:16:14.146Z,45.03
2018-12-29T03:18:44.095Z,44.10
2018-12-29T03:21:16.043Z,36.43
2018-12-29T03:23:46.250Z,37.73
2018-12-29T03:26:17.136Z,31.77
2018-12-29T03:28:47.361Z,35.57
2018-12-29T03:31:17.323Z,39.47
2018-12-29T03:33:47.499Z,37.53
2018-12-29T03:36:17.977Z,46.73
2018-12-29T03:38:48.985Z,48.07
2018-12-29T03:41:19.717Z,40.60
2018-12-29T03:43:56.640Z,41.27
2018-12-29T03:46:26.926Z,34.50
2018-12-29T03:48:56.985Z,41.73
2018-12-29T03:51:26.946Z,40.80
2018-12-29T03:53:56.999Z,42.07
2018-12-29T03:56:27.174Z,42.70
2018-12-29T03:58:58.199Z,45.03
2018-12-29T04:01:28.434Z,43.83
2018-12-29T04:03:58.821Z,36.03
2018-12-29T04:06:29.047Z,51.93
2018-12-29T04:09:35.750Z,46.10
2018-12-29T04:12:25.593Z,50.87
2018-12-29T04:14:55.553Z,46.40
2018-12-29T04:17:25.811Z,45.77
2018-12-29T04:19:56.068Z,42.43
2018-12-29T04:22:27.342Z,51.40
2018-12-29T04:24:57.366Z,47.93
2018-12-29T04:27:27.346Z,40.03
2018-12-29T04:29:57.278Z,46.80
2018-12-29T04:32:27.397Z,47.73
2018-12-29T04:34:57.620Z,40.43
2018-12-29T04:37:27.596Z,42.07
2018-12-29T04:39:57.528Z,38.20
2018-12-29T04:42:27.697Z,40.83
2018-12-29T04:44:57.662Z,39.43
2018-12-29T04:47:27.809Z,38.83
2018-12-29T04:49:57.781Z,42.80
2018-12-29T04:52:28.001Z,43.20
2018-12-29T04:54:58.205Z,39.43
2018-12-29T04:57:28.141Z,41.10
2018-12-29T04:59:58.149Z,64.90
2018-12-29T05:02:28.229Z,47.80
2018-12-29T05:04:58.621Z,41.70
2018-12-29T05:07:29.062Z,45.70
2018-12-29T05:09:59.057Z,48.40
2018-12-29T05:12:29.020Z,44.07
2018-12-29T05:14:59.097Z,45.53
2018-12-29T05:17:29.137Z,44.00
2018-12-29T05:19:59.053Z,50.67
2018-12-29T05:22:29.002Z,47.53
2018-12-29T05:24:58.932Z,46.20
2018-12-29T05:27:28.997Z,42.63
2018-12-29T05:29:58.926Z,41.00
2018-12-29T05:32:29.081Z,39.73
2018-12-29T05:34:59.061Z,46.27
2018-12-29T05:37:29.109Z,46.50
2018-12-29T05:39:59.094Z,46.63
2018-12-29T05:42:29.105Z,50.20
2018-12-29T05:44:59.063Z,55.40
2018-12-29T05:47:29.089Z,50.73
2018-12-29T05:49:59.074Z,52.60
2018-12-29T05:52:29.725Z,47.97
2018-12-29T05:54:59.699Z,55.30
2018-12-29T05:57:29.710Z,54.47
2018-12-29T06:00:00.372Z,53.93
2018-12-29T06:02:30.329Z,46.90
2018-12-29T06:05:00.364Z,57.30
2018-12-29T06:07:30.312Z,53.27
2018-12-29T06:10:00.281Z,50.63
2018-12-29T06:12:30.272Z,50.13
2018-12-29T06:15:00.424Z,49.70
2018-12-29T06:17:30.371Z,62.27
2018-12-29T06:20:00.328Z,56.30
2018-12-29T06:22:30.369Z,58.10
2018-12-29T06:25:00.517Z,49.27
2018-12-29T06:27:30.485Z,56.63
2018-12-29T06:30:00.449Z,64.47
2018-12-29T06:32:30.401Z,54.83
2018-12-29T06:35:00.349Z,55.73
2018-12-29T06:37:30.337Z,60.27
2018-12-29T06:40:00.333Z,58.60
2018-12-29T06:42:30.445Z,61.03
2018-12-29T06:45:00.418Z,58.07
2018-12-29T06:47:30.350Z,59.13
2018-12-29T06:50:00.308Z,70.80
2018-12-29T06:52:30.243Z,59.40
2018-12-29T06:55:00.264Z,67.00
2018-12-29T06:57:30.557Z,65.13
2018-12-29T07:00:00.493Z,60.17
2018-12-29T07:02:30.743Z,77.20
2018-12-29T07:05:00.937Z,70.33
2018-12-29T07:07:30.945Z,62.07
2018-12-29T07:10:01.141Z,63.97
2018-12-29T07:12:31.321Z,72.97
2018-12-29T07:15:02.175Z,61.60
2018-12-29T07:17:32.141Z,75.03
2018-12-29T07:20:03.281Z,66.50
2018-12-29T07:22:33.977Z,78.47
2018-12-29T07:25:03.894Z,65.67
2018-12-29T07:27:33.817Z,61.17
2018-12-29T07:30:04.409Z,75.33
2018-12-29T07:32:34.710Z,65.93
2018-12-29T07:35:05.198Z,58.97
2018-12-29T07:37:35.728Z,62.30
2018-12-29T07:40:06.160Z,62.37
2018-12-29T07:42:36.085Z,65.70
2018-12-29T07:45:06.277Z,61.23
2018-12-29T07:47:36.193Z,81.60
2018-12-29T07:50:06.318Z,68.80
2018-12-29T07:52:36.268Z,70.57
2018-12-29T07:55:06.369Z,60.83
2018-12-29T07:57:36.517Z,59.00
2018-12-29T08:00:07.609Z,74.47
2018-12-29T08:02:38.037Z,67.40
2018-12-29T08:05:08.774Z,63.50
2018-12-29T08:07:38.825Z,75.43
2018-12-29T08:10:09.353Z,75.03
2018-12-29T08:12:39.821Z,57.10
2018-12-29T08:15:09.829Z,62.67
2018-12-29T08:17:40.250Z,50.17
2018-12-29T08:20:10.311Z,49.07
2018-12-29T08:22:40.425Z,47.70
2018-12-29T08:25:10.670Z,53.13
2018-12-29T08:27:40.783Z,44.53
2018-12-29T08:30:11.019Z,46.57
2018-12-29T08:32:41.486Z,40.43
2018-12-29T08:35:11.443Z,50.57
2018-12-29T08:37:41.520Z,42.97
2018-12-29T08:40:11.633Z,41.50
2018-12-29T08:42:41.653Z,42.73
2018-12-29T08:45:11.612Z,42.17
2018-12-29T08:47:42.911Z,39.00
2018-12-29T08:50:13.478Z,34.10
2018-12-29T08:52:44.169Z,36.73
2018-12-29T08:55:14.105Z,39.00
2018-12-29T08:57:44.042Z,32.10
2018-12-29T09:00:14.006Z,32.50
2018-12-29T09:02:45.597Z,30.97
2018-12-29T09:05:16.001Z,30.50
2018-12-29T09:07:46.025Z,26.03
2018-12-29T09:10:16.022Z,36.10
2018-12-29T09:12:46.026Z,37.40
2018-12-29T09:15:16.916Z,33.20
2018-12-29T09:17:46.829Z,32.70
2018-12-29T09:20:16.821Z,33.33
2018-12-29T09:22:47.265Z,47.13
2018-12-29T09:25:17.288Z,57.80
2018-12-29T09:27:47.201Z,42.67
2018-12-29T09:30:17.235Z,33.83
2018-12-29T09:32:47.498Z,30.60
2018-12-29T09:35:17.942Z,37.10
2018-12-29T09:37:47.869Z,37.83
2018-12-29T09:40:17.825Z,36.60
2018-12-29T09:42:48.115Z,39.23
2018-12-29T09:45:18.073Z,42.03
2018-12-29T09:47:48.107Z,48.47
2018-12-29T09:50:18.145Z,40.90
2018-12-29T09:52:48.809Z,41.73
2018-12-29T09:55:18.846Z,35.47
2018-12-29T09:57:48.833Z,51.17
2018-12-29T10:00:18.810Z,47.13
2018-12-29T10:02:49.989Z,40.50
2018-12-29T10:05:19.925Z,35.10
2018-12-29T10:07:49.838Z,38.63
2018-12-29T10:10:19.812Z,34.97
2018-12-29T10:12:49.866Z,39.07
2018-12-29T10:15:19.817Z,38.33
2018-12-29T10:17:50.171Z,35.87
2018-12-29T10:20:20.737Z,38.47
2018-12-29T10:22:50.775Z,32.63
2018-12-29T10:25:21.727Z,42.77
2018-12-29T10:27:52.232Z,35.60
2018-12-29T10:30:22.334Z,39.33
2018-12-29T10:32:57.182Z,43.60
2018-12-29T10:35:31.824Z,38.03
2018-12-29T10:38:01.862Z,39.37
2018-12-29T10:40:33.540Z,36.33
2018-12-29T10:43:03.625Z,36.20
2018-12-29T10:45:33.589Z,35.77
2018-12-29T10:48:03.562Z,39.23
2018-12-29T10:50:33.541Z,36.30
2018-12-29T10:53:03.757Z,32.80
2018-12-29T10:55:33.732Z,36.60
2018-12-29T10:58:04.141Z,35.97
2018-12-29T11:00:35.144Z,37.43
2018-12-29T11:03:05.256Z,28.13
2018-12-29T11:05:35.242Z,34.23
2018-12-29T11:08:05.193Z,31.17
2018-12-29T11:10:35.269Z,32.87
2018-12-29T11:13:05.626Z,34.87
2018-12-29T11:15:35.541Z,29.73
2018-12-29T11:18:05.729Z,31.03
2018-12-29T11:20:35.711Z,30.10
2018-12-29T11:23:05.650Z,30.47
2018-12-29T11:25:35.584Z,31.70
2018-12-29T11:28:05.784Z,31.80
2018-12-29T11:30:35.851Z,31.00
2018-12-29T11:33:06.230Z,35.30
2018-12-29T11:35:36.198Z,30.70
2018-12-29T11:38:06.441Z,30.73
2018-12-29T11:40:36.432Z,28.73
2018-12-29T11:43:07.102Z,32.87
2018-12-29T11:45:37.658Z,33.53
2018-12-29T11:48:07.678Z,37.10
2018-12-29T11:50:37.689Z,33.20
2018-12-29T11:53:07.682Z,31.17
2018-12-29T11:55:37.633Z,30.80
2018-12-29T11:58:07.745Z,32.43
2018-12-29T12:00:38.056Z,32.00
2018-12-29T12:03:07.965Z,31.13
2018-12-29T12:05:37.933Z,28.93
2018-12-29T12:08:08.765Z,31.67
2018-12-29T12:10:38.742Z,32.30
2018-12-29T12:13:08.698Z,34.30
2018-12-29T12:15:38.738Z,34.17
2018-12-29T12:18:08.702Z,36.70
2018-12-29T12:20:38.688Z,28.40
2018-12-29T12:23:08.664Z,31.23
2018-12-29T12:25:39.133Z,33.00
2018-12-29T12:28:10.029Z,29.80
2018-12-29T12:30:40.832Z,27.30
2018-12-29T12:33:11.099Z,27.93
2018-12-29T12:35:41.040Z,27.30
2018-12-29T12:38:11.759Z,29.83
2018-12-29T12:40:42.777Z,32.43
2018-12-29T12:43:13.202Z,27.63
2018-12-29T12:45:43.629Z,28.00
2018-12-29T12:48:13.681Z,37.07
2018-12-29T12:50:43.710Z,31.70
2018-12-29T12:53:13.858Z,26.43
2018-12-29T12:55:44.117Z,30.50
2018-12-29T12:58:15.293Z,29.20
2018-12-29T13:00:45.740Z,31.07
2018-12-29T13:03:16.367Z,27.17
2018-12-29T13:05:46.325Z,30.97
2018-12-29T13:08:16.465Z,27.60
2018-12-29T13:10:46.413Z,32.23
2018-12-29T13:13:16.453Z,26.03
2018-12-29T13:15:46.817Z,26.33
2018-12-29T13:18:16.756Z,29.13
2018-12-29T13:20:46.761Z,29.00
2018-12-29T13:23:17.719Z,27.03
2018-12-29T13:25:47.639Z,27.90
2018-12-29T13:28:17.774Z,31.83
2018-12-29T13:30:47.830Z,31.60
2018-12-29T13:33:17.794Z,25.90
2018-12-29T13:35:47.772Z,30.93
2018-12-29T13:38:18.446Z,26.60
2018-12-29T13:40:48.408Z,30.53
2018-12-29T13:43:18.281Z,25.80
2018-12-29T13:45:48.249Z,25.30
2018-12-29T13:48:20.663Z,32.40
2018-12-29T13:50:51.042Z,28.70
2018-12-29T13:53:20.993Z,23.40
2018-12-29T13:55:59.704Z,25.60
2018-12-29T13:58:29.794Z,26.63
2018-12-29T14:01:00.121Z,29.23
2018-12-29T14:03:38.058Z,30.50
2018-12-29T14:06:08.357Z,34.43
2018-12-29T14:08:38.540Z,30.50
2018-12-29T14:11:08.485Z,31.27
2018-12-29T14:13:38.410Z,28.43
2018-12-29T14:16:08.747Z,29.37
2018-12-29T14:18:38.672Z,26.80
2018-12-29T14:21:09.309Z,27.77
2018-12-29T14:23:39.264Z,23.30
2018-12-29T14:26:09.193Z,32.90
2018-12-29T14:28:39.453Z,25.93
2018-12-29T14:31:09.422Z,34.97
2018-12-29T14:33:39.387Z,30.40
2018-12-29T14:36:09.327Z,27.07
2018-12-29T14:38:39.271Z,28.83
2018-12-29T14:41:09.328Z,26.60
2018-12-29T14:43:39.736Z,32.33
2018-12-29T14:46:09.782Z,23.60
2018-12-29T14:48:39.741Z,22.63
2018-12-29T14:51:09.837Z,32.87
2018-12-29T14:53:39.825Z,29.60
2018-12-29T14:56:09.995Z,28.27
2018-12-29T14:58:39.953Z,28.90
2018-12-29T15:01:09.861Z,31.23
2018-12-29T15:03:39.804Z,31.73
2018-12-29T15:06:10.081Z,25.10
2018-12-29T15:08:40.397Z,29.30
2018-12-29T15:11:10.390Z,34.37
2018-12-29T15:13:40.377Z,25.77
2018-12-29T15:16:10.334Z,26.50
2018-12-29T15:18:44.010Z,28.47
2018-12-29T15:21:14.641Z,27.47
2018-12-29T15:23:45.028Z,32.53
2018-12-29T15:26:15.465Z,29.77
2018-12-29T15:28:46.152Z,30.50
2018-12-29T15:31:16.552Z,28.70
2018-12-29T15:33:46.953Z,28.50
2018-12-29T15:36:17.325Z,29.90
2018-12-29T15:38:47.293Z,32.57
2018-12-29T15:41:17.419Z,30.30
2018-12-29T15:43:49.082Z,34.83
2018-12-29T15:46:19.065Z,36.73
2018-12-29T15:48:51.118Z,36.10
2018-12-29T15:51:20.720Z,28.83
2018-12-29T15:53:50.757Z,25.57
2018-12-29T15:56:21.049Z,28.67
2018-12-29T15:58:51.064Z,27.50
2018-12-29T16:01:21.249Z,32.63
2018-12-29T16:03:51.262Z,32.97
2018-12-29T16:06:21.283Z,34.73
2018-12-29T16:08:51.202Z,31.60
2018-12-29T16:11:26.316Z,31.03
2018-12-29T16:13:53.020Z,23.30
2018-12-29T16:16:22.981Z,36.70
2018-12-29T16:18:58.831Z,33.03
2018-12-29T16:21:24.949Z,29.63
2018-12-29T16:23:54.933Z,35.63
2018-12-29T16:26:24.917Z,33.57
2018-12-29T16:28:54.850Z,33.30
2018-12-29T16:31:24.833Z,32.10
2018-12-29T16:33:54.933Z,40.87
2018-12-29T16:36:25.444Z,37.63
2018-12-29T16:38:56.965Z,35.13
2018-12-29T16:41:26.844Z,36.93
2018-12-29T16:43:57.030Z,37.30
2018-12-29T16:46:26.997Z,32.57
2018-12-29T16:48:57.065Z,32.83
2018-12-29T16:51:27.080Z,38.20
2018-12-29T16:53:57.005Z,36.60
2018-12-29T16:56:26.906Z,39.00
2018-12-29T16:58:56.865Z,36.43
2018-12-29T17:01:27.026Z,40.07
2018-12-29T17:03:57.097Z,40.47
2018-12-29T17:06:27.133Z,39.20
2018-12-29T17:08:57.097Z,40.40
2018-12-29T17:11:27.560Z,43.17
2018-12-29T17:13:59.812Z,39.27
2018-12-29T17:16:35.857Z,46.97
2018-12-29T17:19:05.758Z,39.03
2018-12-29T17:21:38.921Z,34.97
2018-12-29T17:24:09.330Z,36.43
2018-12-29T17:26:39.244Z,42.60
2018-12-29T17:29:09.438Z,35.40
2018-12-29T17:31:39.509Z,30.17
2018-12-29T17:34:09.877Z,35.53
2018-12-29T17:36:42.051Z,39.37
2018-12-29T17:39:11.583Z,34.23
2018-12-29T17:41:41.602Z,26.37
2018-12-29T17:44:11.630Z,30.67
2018-12-29T17:46:42.035Z,36.50
2018-12-29T17:49:12.241Z,35.93
2018-12-29T17:51:42.297Z,30.07
2018-12-29T17:54:12.393Z,33.07
2018-12-29T17:56:42.453Z,31.90
2018-12-29T17:59:12.626Z,29.40
2018-12-29T18:01:42.652Z,34.03
2018-12-29T18:04:12.612Z,35.77
2018-12-29T18:06:42.605Z,37.53
2018-12-29T18:09:12.653Z,31.90
2018-12-29T18:11:42.689Z,33.40
2018-12-29T18:14:12.669Z,34.37
2018-12-29T18:16:43.728Z,29.80
2018-12-29T18:19:13.982Z,37.40
2018-12-29T18:21:44.208Z,28.90
2018-12-29T18:24:14.132Z,29.80
2018-12-29T18:26:44.216Z,26.03
2018-12-29T18:29:14.861Z,25.97
2018-12-29T18:31:44.837Z,32.17
2018-12-29T18:34:14.881Z,26.83
2018-12-29T18:36:45.368Z,25.60
2018-12-29T18:39:15.345Z,25.50
2018-12-29T18:41:45.330Z,27.37
2018-12-29T18:44:17.742Z,29.67
2018-12-29T18:46:48.183Z,23.53
2018-12-29T18:49:20.385Z,20.77
2018-12-29T18:51:50.417Z,23.20
2018-12-29T18:54:20.414Z,22.80
2018-12-29T18:56:50.701Z,25.43
2018-12-29T18:59:20.904Z,23.33
2018-12-29T19:01:57.643Z,25.80
2018-12-29T19:04:23.197Z,25.97
2018-12-29T19:06:53.233Z,26.90
2018-12-29T19:09:23.178Z,24.90
2018-12-29T19:11:53.168Z,28.37
2018-12-29T19:14:23.677Z,25.10
2018-12-29T19:16:54.105Z,23.03
2018-12-29T19:19:25.918Z,26.47
2018-12-29T19:21:55.979Z,25.00
2018-12-29T19:24:25.939Z,23.47
2018-12-29T19:26:55.865Z,22.47
2018-12-29T19:29:25.878Z,23.90
2018-12-29T19:31:56.455Z,23.20
2018-12-29T19:34:26.961Z,23.50
2018-12-29T19:36:57.173Z,20.80
2018-12-29T19:39:27.409Z,23.40
2018-12-29T19:41:57.432Z,27.20
2018-12-29T19:44:29.033Z,22.40
2018-12-29T19:46:59.297Z,22.50
2018-12-29T19:49:29.928Z,26.23
2018-12-29T19:52:00.441Z,24.90
2018-12-29T19:54:31.233Z,27.87
2018-12-29T19:57:01.701Z,30.03
2018-12-29T19:59:32.142Z,36.57
2018-12-29T20:02:02.527Z,30.23
2018-12-29T20:04:32.553Z,29.87
2018-12-29T20:07:02.821Z,27.20
2018-12-29T20:09:32.791Z,30.10
2018-12-29T20:12:03.022Z,34.00
2018-12-29T20:14:33.177Z,32.23
2018-12-29T20:17:03.526Z,28.90
2018-12-29T20:19:34.855Z,29.50
2018-12-29T20:22:04.976Z,23.23
2018-12-29T20:24:35.319Z,34.40
2018-12-29T20:27:05.278Z,35.30
2018-12-29T20:29:40.254Z,29.33
2018-12-29T20:32:11.016Z,27.90
2018-12-29T20:34:41.381Z,30.40
2018-12-29T20:37:11.375Z,37.77
2018-12-29T20:39:41.277Z,27.20
2018-12-29T20:42:11.452Z,29.80
2018-12-29T20:44:41.418Z,25.20
2018-12-29T20:47:11.755Z,24.07
2018-12-29T20:49:41.697Z,22.33
2018-12-29T20:52:15.477Z,22.20
2018-12-29T20:54:48.691Z,24.00
2018-12-29T20:57:18.759Z,23.00
2018-12-29T20:59:48.925Z,17.97
2018-12-29T21:02:18.895Z,16.20
2018-12-29T21:04:49.093Z,17.23
2018-12-29T21:07:21.580Z,19.70
2018-12-29T21:09:51.565Z,12.00
2018-12-29T21:12:25.765Z,9.30
2018-12-29T21:14:55.821Z,12.30
2018-12-29T21:17:25.877Z,12.93
2018-12-29T21:19:56.225Z,9.77
2018-12-29T21:22:26.389Z,11.90
2018-12-29T21:24:56.533Z,16.27
2018-12-29T21:27:26.721Z,9.47
2018-12-29T21:29:56.701Z,12.10
2018-12-29T21:32:27.257Z,9.60
2018-12-29T21:34:57.501Z,10.70
2018-12-29T21:37:27.485Z,8.50
2018-12-29T21:39:57.538Z,12.40
2018-12-29T21:42:27.579Z,11.80
2018-12-29T21:44:58.281Z,6.60
2018-12-29T21:47:28.566Z,6.50
2018-12-29T21:49:58.553Z,12.80
2018-12-29T21:52:28.749Z,8.80
2018-12-29T21:55:01.959Z,12.40
2018-12-29T21:57:32.025Z,7.30
2018-12-29T22:00:02.062Z,7.07
2018-12-29T22:02:32.727Z,8.73
2018-12-29T22:05:02.935Z,9.53
2018-12-29T22:07:32.961Z,11.10
2018-12-29T22:10:02.986Z,9.20
2018-12-29T22:12:32.928Z,10.93
2018-12-29T22:15:03.246Z,9.43
2018-12-29T22:17:33.885Z,7.70
2018-12-29T22:20:04.141Z,7.10
2018-12-29T22:22:34.333Z,7.80
2018-12-29T22:25:04.985Z,8.87
2018-12-29T22:27:34.993Z,9.27
2018-12-29T22:30:05.459Z,8.53
2018-12-29T22:32:35.496Z,7.70
2018-12-29T22:35:05.865Z,12.43
2018-12-29T22:37:35.871Z,6.00
2018-12-29T22:40:06.022Z,6.80
2018-12-29T22:42:35.995Z,10.33
2018-12-29T22:45:06.485Z,7.13
2018-12-29T22:47:36.509Z,13.53
2018-12-29T22:50:07.013Z,9.50
2018-12-29T22:52:37.395Z,13.70
2018-12-29T22:55:08.227Z,9.67
2018-12-29T22:57:38.619Z,12.33
2018-12-29T23:00:14.978Z,13.57
2018-12-29T23:02:45.153Z,9.93
2018-12-29T23:05:17.113Z,13.43
2018-12-29T23:07:47.364Z,8.23
2018-12-29T23:10:17.432Z,10.47
2018-12-29T23:12:47.876Z,10.23
2018-12-29T23:15:18.010Z,10.33
2018-12-29T23:17:48.599Z,10.93
2018-12-29T23:20:18.486Z,12.00
2018-12-29T23:22:49.514Z,14.13
2018-12-29T23:25:19.459Z,12.83
2018-12-29T23:27:49.592Z,9.27
2018-12-29T23:30:20.413Z,7.77
2018-12-29T23:32:50.737Z,13.27
2018-12-29T23:35:22.169Z,13.03
2018-12-29T23:37:52.248Z,10.53
2018-12-29T23:40:22.228Z,10.83
2018-12-29T23:42:53.577Z,6.00
2018-12-29T23:45:23.488Z,10.03
2018-12-29T23:47:53.450Z,6.03
2018-12-29T23:50:23.925Z,7.13
2018-12-29T23:52:54.261Z,6.30
2018-12-29T23:55:24.408Z,16.17
2018-12-29T23:57:54.367Z,8.40
